sensor_id;sensor_type;location;lat;lon;timestamp;temperature;humidity
9824;DHT22;4951;50.778;7.196;2023-03-17T00:01:05;8.40;99.90
9824;DHT22;4951;50.778;7.196;2023-03-17T00:04:46;8.30;99.90
9824;DHT22;4951;50.778;7.196;2023-03-17T00:08:08;8.30;99.90
9824;DHT22;4951;50.778;7.196;2023-03-17T00:11:26;8.30;99.90
9824;DHT22;4951;50.778;7.196;2023-03-17T00:15:01;8.30;99.90
9824;DHT22;4951;50.778;7.196;2023-03-17T00:18:53;8.20;99.90
9824;DHT22;4951;50.778;7.196;2023-03-17T00:21:38;8.10;99.90
9824;DHT22;4951;50.778;7.196;2023-03-17T00:24:18;8.10;99.90
9824;DHT22;4951;50.778;7.196;2023-03-17T00:27:06;8.00;99.90
9824;DHT22;4951;50.778;7.196;2023-03-17T00:30:03;8.00;99.90
9824;DHT22;4951;50.778;7.196;2023-03-17T00:32:54;7.90;99.90
9824;DHT22;4951;50.778;7.196;2023-03-17T00:35:24;7.80;1.00
9824;DHT22;4951;50.778;7.196;2023-03-17T00:38:09;7.80;1.00
9824;DHT22;4951;50.778;7.196;2023-03-17T00:43:29;7.60;1.00
9824;DHT22;4951;50.778;7.196;2023-03-17T00:46:01;7.50;1.00
9824;DHT22;4951;50.778;7.196;2023-03-17T00:48:54;7.50;1.00
9824;DHT22;4951;50.778;7.196;2023-03-17T00:54:45;7.30;1.00
9824;DHT22;4951;50.778;7.196;2023-03-17T00:58:23;7.20;1.00
9824;DHT22;4951;50.778;7.196;2023-03-17T01:04:04;7.10;16.00
9824;DHT22;4951;50.778;7.196;2023-03-17T01:06:34;7.00;99.40
9824;DHT22;4951;50.778;7.196;2023-03-17T01:09:33;7.00;99.90
9824;DHT22;4951;50.778;7.196;2023-03-17T01:12:18;6.90;99.90
9824;DHT22;4951;50.778;7.196;2023-03-17T01:15:12;6.90;99.90
9824;DHT22;4951;50.778;7.196;2023-03-17T01:18:22;6.90;1.00
9824;DHT22;4951;50.778;7.196;2023-03-17T01:21:04;6.90;1.00
9824;DHT22;4951;50.778;7.196;2023-03-17T01:23:36;6.90;1.00
9824;DHT22;4951;50.778;7.196;2023-03-17T01:26:23;6.90;1.00
9824;DHT22;4951;50.778;7.196;2023-03-17T01:29:19;6.90;1.00
9824;DHT22;4951;50.778;7.196;2023-03-17T01:31:49;6.90;1.00
9824;DHT22;4951;50.778;7.196;2023-03-17T01:34:26;6.90;1.00
9824;DHT22;4951;50.778;7.196;2023-03-17T01:37:10;6.80;1.00
9824;DHT22;4951;50.778;7.196;2023-03-17T01:39:48;6.80;1.00
9824;DHT22;4951;50.778;7.196;2023-03-17T01:42:36;6.80;1.00
9824;DHT22;4951;50.778;7.196;2023-03-17T01:48:58;6.70;1.00
9824;DHT22;4951;50.778;7.196;2023-03-17T01:52:27;6.60;1.00
9824;DHT22;4951;50.778;7.196;2023-03-17T01:55:21;6.50;64.40
9824;DHT22;4951;50.778;7.196;2023-03-17T01:58:00;6.50;99.90
9824;DHT22;4951;50.778;7.196;2023-03-17T02:00:33;6.50;99.90
9824;DHT22;4951;50.778;7.196;2023-03-17T02:03:01;6.40;99.90
9824;DHT22;4951;50.778;7.196;2023-03-17T02:05:29;6.40;1.00
9824;DHT22;4951;50.778;7.196;2023-03-17T02:08:13;6.40;1.00
9824;DHT22;4951;50.778;7.196;2023-03-17T02:10:44;6.40;1.00
9824;DHT22;4951;50.778;7.196;2023-03-17T02:13:15;6.40;1.00
9824;DHT22;4951;50.778;7.196;2023-03-17T02:15:52;6.40;1.00
9824;DHT22;4951;50.778;7.196;2023-03-17T02:18:31;6.40;1.00
9824;DHT22;4951;50.778;7.196;2023-03-17T02:21:40;6.40;1.00
9824;DHT22;4951;50.778;7.196;2023-03-17T02:24:13;6.50;1.00
9824;DHT22;4951;50.778;7.196;2023-03-17T02:26:51;6.50;1.00
9824;DHT22;4951;50.778;7.196;2023-03-17T02:29:47;6.50;1.00
9824;DHT22;4951;50.778;7.196;2023-03-17T02:32:17;6.50;1.00
9824;DHT22;4951;50.778;7.196;2023-03-17T02:34:52;6.50;1.00
9824;DHT22;4951;50.778;7.196;2023-03-17T02:37:48;6.50;1.00
9824;DHT22;4951;50.778;7.196;2023-03-17T02:40:38;6.40;1.00
9824;DHT22;4951;50.778;7.196;2023-03-17T02:43:38;6.50;1.00
9824;DHT22;4951;50.778;7.196;2023-03-17T02:46:34;6.50;1.00
9824;DHT22;4951;50.778;7.196;2023-03-17T02:49:19;6.50;1.00
9824;DHT22;4951;50.778;7.196;2023-03-17T02:51:59;6.40;1.00
9824;DHT22;4951;50.778;7.196;2023-03-17T02:55:06;6.40;1.00
9824;DHT22;4951;50.778;7.196;2023-03-17T02:57:46;6.40;1.00
9824;DHT22;4951;50.778;7.196;2023-03-17T03:00:43;6.30;1.00
9824;DHT22;4951;50.778;7.196;2023-03-17T03:03:54;6.30;1.00
9824;DHT22;4951;50.778;7.196;2023-03-17T03:10:16;6.30;1.00
9824;DHT22;4951;50.778;7.196;2023-03-17T03:13:45;6.30;1.00
9824;DHT22;4951;50.778;7.196;2023-03-17T03:17:07;6.20;1.00
9824;DHT22;4951;50.778;7.196;2023-03-17T03:19:50;6.10;1.00
9824;DHT22;4951;50.778;7.196;2023-03-17T03:22:24;6.00;1.00
9824;DHT22;4951;50.778;7.196;2023-03-17T03:25:00;6.00;1.00
9824;DHT22;4951;50.778;7.196;2023-03-17T03:28:10;5.90;1.00
9824;DHT22;4951;50.778;7.196;2023-03-17T03:31:45;5.90;92.80
9824;DHT22;4951;50.778;7.196;2023-03-17T03:34:33;5.80;99.90
9824;DHT22;4951;50.778;7.196;2023-03-17T03:37:08;5.80;99.90
9824;DHT22;4951;50.778;7.196;2023-03-17T03:39:38;5.80;99.90
9824;DHT22;4951;50.778;7.196;2023-03-17T03:42:12;5.80;99.90
9824;DHT22;4951;50.778;7.196;2023-03-17T03:44:45;5.90;99.90
9824;DHT22;4951;50.778;7.196;2023-03-17T03:47:20;5.90;1.00
9824;DHT22;4951;50.778;7.196;2023-03-17T03:50:07;5.90;1.00
9824;DHT22;4951;50.778;7.196;2023-03-17T03:52:37;5.90;1.00
9824;DHT22;4951;50.778;7.196;2023-03-17T03:55:05;6.00;99.90
9824;DHT22;4951;50.778;7.196;2023-03-17T03:57:49;6.00;99.90
9824;DHT22;4951;50.778;7.196;2023-03-17T04:00:32;5.90;99.90
9824;DHT22;4951;50.778;7.196;2023-03-17T04:03:06;6.00;99.90
9824;DHT22;4951;50.778;7.196;2023-03-17T04:05:52;6.00;99.90
9824;DHT22;4951;50.778;7.196;2023-03-17T04:08:54;6.00;99.90
9824;DHT22;4951;50.778;7.196;2023-03-17T04:11:26;6.00;99.90
9824;DHT22;4951;50.778;7.196;2023-03-17T04:13:53;6.00;99.90
9824;DHT22;4951;50.778;7.196;2023-03-17T04:16:26;5.90;99.90
9824;DHT22;4951;50.778;7.196;2023-03-17T04:19:05;5.90;99.90
9824;DHT22;4951;50.778;7.196;2023-03-17T04:21:45;5.80;99.90
9824;DHT22;4951;50.778;7.196;2023-03-17T04:24:17;5.70;99.90
9824;DHT22;4951;50.778;7.196;2023-03-17T04:27:29;5.70;1.00
9824;DHT22;4951;50.778;7.196;2023-03-17T04:30:05;5.70;1.00
9824;DHT22;4951;50.778;7.196;2023-03-17T04:33:01;5.70;1.00
9824;DHT22;4951;50.778;7.196;2023-03-17T04:36:13;5.70;1.00
9824;DHT22;4951;50.778;7.196;2023-03-17T04:39:08;5.80;1.00
9824;DHT22;4951;50.778;7.196;2023-03-17T04:45:14;5.80;1.00
9824;DHT22;4951;50.778;7.196;2023-03-17T04:47:47;5.70;99.90
9824;DHT22;4951;50.778;7.196;2023-03-17T04:50:20;5.70;1.00
9824;DHT22;4951;50.778;7.196;2023-03-17T04:53:21;5.70;1.00
9824;DHT22;4951;50.778;7.196;2023-03-17T04:55:51;5.70;1.00
9824;DHT22;4951;50.778;7.196;2023-03-17T04:58:23;5.80;1.00
9824;DHT22;4951;50.778;7.196;2023-03-17T05:01:06;5.80;1.00
9824;DHT22;4951;50.778;7.196;2023-03-17T05:03:53;5.80;1.00
9824;DHT22;4951;50.778;7.196;2023-03-17T05:06:21;5.80;1.00
9824;DHT22;4951;50.778;7.196;2023-03-17T05:09:25;5.80;1.00
9824;DHT22;4951;50.778;7.196;2023-03-17T05:12:15;5.80;1.00
9824;DHT22;4951;50.778;7.196;2023-03-17T05:14:56;5.80;1.00
9824;DHT22;4951;50.778;7.196;2023-03-17T05:17:32;5.80;1.00
9824;DHT22;4951;50.778;7.196;2023-03-17T05:20:24;5.70;1.00
9824;DHT22;4951;50.778;7.196;2023-03-17T05:23:42;5.80;1.00
9824;DHT22;4951;50.778;7.196;2023-03-17T05:26:33;5.70;1.00
9824;DHT22;4951;50.778;7.196;2023-03-17T05:29:42;5.80;1.00
9824;DHT22;4951;50.778;7.196;2023-03-17T05:32:41;5.80;1.00
9824;DHT22;4951;50.778;7.196;2023-03-17T05:38:11;5.80;1.00
9824;DHT22;4951;50.778;7.196;2023-03-17T05:40:41;5.80;1.00
9824;DHT22;4951;50.778;7.196;2023-03-17T05:43:16;5.80;1.00
9824;DHT22;4951;50.778;7.196;2023-03-17T05:45:43;5.80;1.00
9824;DHT22;4951;50.778;7.196;2023-03-17T05:48:23;5.80;1.00
9824;DHT22;4951;50.778;7.196;2023-03-17T05:51:14;5.70;1.00
9824;DHT22;4951;50.778;7.196;2023-03-17T05:54:13;5.70;1.00
9824;DHT22;4951;50.778;7.196;2023-03-17T05:57:11;5.70;1.00
9824;DHT22;4951;50.778;7.196;2023-03-17T05:59:43;5.70;1.00
9824;DHT22;4951;50.778;7.196;2023-03-17T06:02:45;5.70;1.00
9824;DHT22;4951;50.778;7.196;2023-03-17T06:05:24;5.70;1.00
9824;DHT22;4951;50.778;7.196;2023-03-17T06:08:02;5.80;1.00
9824;DHT22;4951;50.778;7.196;2023-03-17T06:10:43;5.80;1.00
9824;DHT22;4951;50.778;7.196;2023-03-17T06:13:36;5.80;1.00
9824;DHT22;4951;50.778;7.196;2023-03-17T06:17:22;5.90;1.00
9824;DHT22;4951;50.778;7.196;2023-03-17T06:20:27;6.00;1.00
9824;DHT22;4951;50.778;7.196;2023-03-17T06:23:03;6.00;1.00
9824;DHT22;4951;50.778;7.196;2023-03-17T06:25:32;6.10;1.00
9824;DHT22;4951;50.778;7.196;2023-03-17T06:31:57;6.20;99.90
9824;DHT22;4951;50.778;7.196;2023-03-17T06:35:15;6.30;99.90
9824;DHT22;4951;50.778;7.196;2023-03-17T06:38:13;6.50;99.90
9824;DHT22;4951;50.778;7.196;2023-03-17T06:47:16;6.70;1.00
9824;DHT22;4951;50.778;7.196;2023-03-17T06:50:58;6.80;1.00
9824;DHT22;4951;50.778;7.196;2023-03-17T06:54:03;6.90;1.00
9824;DHT22;4951;50.778;7.196;2023-03-17T06:57:14;7.00;1.00
9824;DHT22;4951;50.778;7.196;2023-03-17T06:59:48;7.20;1.00
9824;DHT22;4951;50.778;7.196;2023-03-17T07:06:22;7.30;99.90
9824;DHT22;4951;50.778;7.196;2023-03-17T07:09:36;7.50;99.90
9824;DHT22;4951;50.778;7.196;2023-03-17T07:13:03;7.60;99.90
9824;DHT22;4951;50.778;7.196;2023-03-17T07:16:43;7.80;99.90
9824;DHT22;4951;50.778;7.196;2023-03-17T07:19:50;7.90;90.00
9824;DHT22;4951;50.778;7.196;2023-03-17T07:22:45;8.00;36.20
9824;DHT22;4951;50.778;7.196;2023-03-17T07:26:06;8.10;1.00
9824;DHT22;4951;50.778;7.196;2023-03-17T07:29:16;8.30;1.00
9824;DHT22;4951;50.778;7.196;2023-03-17T07:31:49;8.40;1.00
9824;DHT22;4951;50.778;7.196;2023-03-17T07:34:30;8.50;1.00
9824;DHT22;4951;50.778;7.196;2023-03-17T07:37:11;8.60;1.00
9824;DHT22;4951;50.778;7.196;2023-03-17T07:40:58;8.70;1.00
9824;DHT22;4951;50.778;7.196;2023-03-17T07:44:27;8.90;1.00
9824;DHT22;4951;50.778;7.196;2023-03-17T07:47:02;9.10;1.00
9824;DHT22;4951;50.778;7.196;2023-03-17T07:50:46;9.30;99.90
9824;DHT22;4951;50.778;7.196;2023-03-17T07:53:50;9.50;99.90
9824;DHT22;4951;50.778;7.196;2023-03-17T07:57:15;9.70;1.00
9824;DHT22;4951;50.778;7.196;2023-03-17T08:03:48;10.10;1.00
9824;DHT22;4951;50.778;7.196;2023-03-17T08:06:21;10.30;1.00
9824;DHT22;4951;50.778;7.196;2023-03-17T08:09:39;10.40;1.00
9824;DHT22;4951;50.778;7.196;2023-03-17T08:12:38;10.60;1.00
9824;DHT22;4951;50.778;7.196;2023-03-17T08:15:43;10.80;1.00
9824;DHT22;4951;50.778;7.196;2023-03-17T08:18:37;11.00;1.00
9824;DHT22;4951;50.778;7.196;2023-03-17T08:21:52;11.10;99.90
9824;DHT22;4951;50.778;7.196;2023-03-17T08:24:47;11.30;99.90
9824;DHT22;4951;50.778;7.196;2023-03-17T08:27:40;11.50;99.90
9824;DHT22;4951;50.778;7.196;2023-03-17T08:30:33;11.60;99.90
9824;DHT22;4951;50.778;7.196;2023-03-17T08:33:51;11.70;99.90
9824;DHT22;4951;50.778;7.196;2023-03-17T08:43:51;12.00;1.00
9824;DHT22;4951;50.778;7.196;2023-03-17T08:50:28;12.30;1.00
9824;DHT22;4951;50.778;7.196;2023-03-17T08:52:57;12.40;1.00
9824;DHT22;4951;50.778;7.196;2023-03-17T08:55:25;12.60;1.00
9824;DHT22;4951;50.778;7.196;2023-03-17T08:57:53;12.70;1.00
9824;DHT22;4951;50.778;7.196;2023-03-17T09:00:22;12.80;1.00
9824;DHT22;4951;50.778;7.196;2023-03-17T09:02:51;12.90;1.00
9824;DHT22;4951;50.778;7.196;2023-03-17T09:05:19;13.00;1.00
9824;DHT22;4951;50.778;7.196;2023-03-17T09:07:50;13.20;1.00
9824;DHT22;4951;50.778;7.196;2023-03-17T09:10:18;13.30;1.00
9824;DHT22;4951;50.778;7.196;2023-03-17T09:12:48;13.50;1.00
9824;DHT22;4951;50.778;7.196;2023-03-17T09:15:16;13.60;1.00
9824;DHT22;4951;50.778;7.196;2023-03-17T09:17:46;13.80;1.00
9824;DHT22;4951;50.778;7.196;2023-03-17T09:20:14;14.00;1.00
9824;DHT22;4951;50.778;7.196;2023-03-17T09:22:42;14.20;1.00
9824;DHT22;4951;50.778;7.196;2023-03-17T09:25:11;14.20;1.00
9824;DHT22;4951;50.778;7.196;2023-03-17T09:27:39;14.30;1.00
9824;DHT22;4951;50.778;7.196;2023-03-17T09:30:07;14.40;1.00
9824;DHT22;4951;50.778;7.196;2023-03-17T09:32:36;14.50;1.00
9824;DHT22;4951;50.778;7.196;2023-03-17T09:35:04;14.60;1.00
9824;DHT22;4951;50.778;7.196;2023-03-17T09:37:31;14.70;1.00
9824;DHT22;4951;50.778;7.196;2023-03-17T09:40:04;14.80;1.00
9824;DHT22;4951;50.778;7.196;2023-03-17T09:42:46;14.90;1.00
9824;DHT22;4951;50.778;7.196;2023-03-17T09:45:23;14.90;1.00
9824;DHT22;4951;50.778;7.196;2023-03-17T09:50:59;15.10;1.00
9824;DHT22;4951;50.778;7.196;2023-03-17T09:53:38;15.20;1.00
9824;DHT22;4951;50.778;7.196;2023-03-17T09:56:12;15.30;1.00
9824;DHT22;4951;50.778;7.196;2023-03-17T09:58:48;15.30;1.00
9824;DHT22;4951;50.778;7.196;2023-03-17T10:01:17;15.30;1.00
9824;DHT22;4951;50.778;7.196;2023-03-17T10:03:47;15.40;1.00
9824;DHT22;4951;50.778;7.196;2023-03-17T10:06:31;15.50;1.00
9824;DHT22;4951;50.778;7.196;2023-03-17T10:09:06;15.70;1.00
9824;DHT22;4951;50.778;7.196;2023-03-17T10:11:40;15.70;1.00
9824;DHT22;4951;50.778;7.196;2023-03-17T10:14:39;15.70;1.00
9824;DHT22;4951;50.778;7.196;2023-03-17T10:17:33;15.70;1.00
9824;DHT22;4951;50.778;7.196;2023-03-17T10:20:06;15.80;1.00
9824;DHT22;4951;50.778;7.196;2023-03-17T10:22:44;16.00;1.00
9824;DHT22;4951;50.778;7.196;2023-03-17T10:28:50;16.20;1.00
9824;DHT22;4951;50.778;7.196;2023-03-17T10:32:36;16.40;1.00
9824;DHT22;4951;50.778;7.196;2023-03-17T10:35:14;16.70;1.00
9824;DHT22;4951;50.778;7.196;2023-03-17T10:37:45;16.80;1.00
9824;DHT22;4951;50.778;7.196;2023-03-17T10:40:35;16.90;1.00
9824;DHT22;4951;50.778;7.196;2023-03-17T10:43:40;17.10;1.00
9824;DHT22;4951;50.778;7.196;2023-03-17T10:46:21;17.20;1.00
9824;DHT22;4951;50.778;7.196;2023-03-17T10:49:18;17.20;99.90
9824;DHT22;4951;50.778;7.196;2023-03-17T10:52:18;17.20;99.90
9824;DHT22;4951;50.778;7.196;2023-03-17T10:55:10;17.00;99.90
9824;DHT22;4951;50.778;7.196;2023-03-17T10:58:20;16.80;99.90
9824;DHT22;4951;50.778;7.196;2023-03-17T11:27:55;16.70;99.90
9824;DHT22;4951;50.778;7.196;2023-03-17T11:30:47;16.80;99.90
9824;DHT22;4951;50.778;7.196;2023-03-17T11:37:54;17.10;99.90
9824;DHT22;4951;50.778;7.196;2023-03-17T11:40:57;17.20;99.90
9824;DHT22;4951;50.778;7.196;2023-03-17T11:53:15;17.30;99.90
9824;DHT22;4951;50.778;7.196;2023-03-17T12:04:14;17.80;99.90
9824;DHT22;4951;50.778;7.196;2023-03-17T12:07:42;17.80;99.90
9824;DHT22;4951;50.778;7.196;2023-03-17T12:14:34;17.50;99.90
9824;DHT22;4951;50.778;7.196;2023-03-17T12:20:14;17.40;99.90
9824;DHT22;4951;50.778;7.196;2023-03-17T12:23:37;17.40;99.90
9824;DHT22;4951;50.778;7.196;2023-03-17T12:31:18;17.50;99.90
9824;DHT22;4951;50.778;7.196;2023-03-17T12:38:06;17.70;99.90
9824;DHT22;4951;50.778;7.196;2023-03-17T12:41:26;17.70;99.90
9824;DHT22;4951;50.778;7.196;2023-03-17T12:45:03;17.80;99.90
9824;DHT22;4951;50.778;7.196;2023-03-17T12:51:30;18.10;99.90
9824;DHT22;4951;50.778;7.196;2023-03-17T12:57:36;18.30;99.90
9824;DHT22;4951;50.778;7.196;2023-03-17T13:00:54;18.50;99.90
9824;DHT22;4951;50.778;7.196;2023-03-17T13:07:25;18.80;99.90
9824;DHT22;4951;50.778;7.196;2023-03-17T13:13:56;18.90;99.90
9824;DHT22;4951;50.778;7.196;2023-03-17T13:17:00;18.90;99.90
9824;DHT22;4951;50.778;7.196;2023-03-17T13:19:53;19.10;99.90
9824;DHT22;4951;50.778;7.196;2023-03-17T13:25:54;19.30;99.90
9824;DHT22;4951;50.778;7.196;2023-03-17T13:28:40;19.20;99.90
9824;DHT22;4951;50.778;7.196;2023-03-17T13:31:37;18.90;99.90
9824;DHT22;4951;50.778;7.196;2023-03-17T13:34:27;18.60;99.90
9824;DHT22;4951;50.778;7.196;2023-03-17T13:37:50;18.50;99.90
9824;DHT22;4951;50.778;7.196;2023-03-17T13:47:50;18.70;99.90
9824;DHT22;4951;50.778;7.196;2023-03-17T13:51:10;18.90;99.90
9824;DHT22;4951;50.778;7.196;2023-03-17T13:54:06;19.00;99.90
9824;DHT22;4951;50.778;7.196;2023-03-17T14:00:32;19.00;99.90
9824;DHT22;4951;50.778;7.196;2023-03-17T14:03:59;19.10;99.90
9824;DHT22;4951;50.778;7.196;2023-03-17T14:06:54;19.00;99.90
9824;DHT22;4951;50.778;7.196;2023-03-17T14:09:41;18.90;99.90
9824;DHT22;4951;50.778;7.196;2023-03-17T14:13:35;18.80;99.90
9824;DHT22;4951;50.778;7.196;2023-03-17T14:16:27;18.80;99.90
9824;DHT22;4951;50.778;7.196;2023-03-17T14:20:19;18.50;99.90
9824;DHT22;4951;50.778;7.196;2023-03-17T14:23:14;18.10;99.90
9824;DHT22;4951;50.778;7.196;2023-03-17T14:25:56;17.80;99.90
9824;DHT22;4951;50.778;7.196;2023-03-17T14:29:05;17.60;99.90
9824;DHT22;4951;50.778;7.196;2023-03-17T14:36:06;17.30;99.90
9824;DHT22;4951;50.778;7.196;2023-03-17T14:39:17;17.10;99.90
9824;DHT22;4951;50.778;7.196;2023-03-17T14:42:43;16.90;99.90
9824;DHT22;4951;50.778;7.196;2023-03-17T14:45:47;16.80;99.90
9824;DHT22;4951;50.778;7.196;2023-03-17T14:49:03;16.70;99.90
9824;DHT22;4951;50.778;7.196;2023-03-17T14:52:22;16.70;99.90
9824;DHT22;4951;50.778;7.196;2023-03-17T14:54:58;16.60;99.90
9824;DHT22;4951;50.778;7.196;2023-03-17T14:58:25;16.60;99.90
9824;DHT22;4951;50.778;7.196;2023-03-17T15:01:05;16.50;99.90
9824;DHT22;4951;50.778;7.196;2023-03-17T15:04:03;16.40;99.90
9824;DHT22;4951;50.778;7.196;2023-03-17T15:10:04;16.10;99.90
9824;DHT22;4951;50.778;7.196;2023-03-17T15:12:46;16.10;99.90
9824;DHT22;4951;50.778;7.196;2023-03-17T15:15:44;16.00;99.90
9824;DHT22;4951;50.778;7.196;2023-03-17T15:19:01;16.00;99.90
9824;DHT22;4951;50.778;7.196;2023-03-17T15:25:41;15.90;99.90
9824;DHT22;4951;50.778;7.196;2023-03-17T15:32:34;15.70;99.90
9824;DHT22;4951;50.778;7.196;2023-03-17T15:37:02;15.70;99.90
9824;DHT22;4951;50.778;7.196;2023-03-17T15:40:03;15.60;99.90
9824;DHT22;4951;50.778;7.196;2023-03-17T15:42:58;15.50;99.90
9824;DHT22;4951;50.778;7.196;2023-03-17T15:46:33;15.50;99.90
9824;DHT22;4951;50.778;7.196;2023-03-17T15:49:10;15.40;99.90
9824;DHT22;4951;50.778;7.196;2023-03-17T15:52:20;15.40;99.90
9824;DHT22;4951;50.778;7.196;2023-03-17T15:55:12;15.30;99.90
9824;DHT22;4951;50.778;7.196;2023-03-17T15:58:56;15.20;99.90
9824;DHT22;4951;50.778;7.196;2023-03-17T16:01:36;15.10;99.90
9824;DHT22;4951;50.778;7.196;2023-03-17T16:04:39;15.00;99.90
9824;DHT22;4951;50.778;7.196;2023-03-17T16:13:27;14.80;99.90
9824;DHT22;4951;50.778;7.196;2023-03-17T16:16:28;14.80;99.90
9824;DHT22;4951;50.778;7.196;2023-03-17T16:23:15;14.70;99.90
9824;DHT22;4951;50.778;7.196;2023-03-17T16:25:47;14.60;99.90
9824;DHT22;4951;50.778;7.196;2023-03-17T16:28:57;14.50;99.90
9824;DHT22;4951;50.778;7.196;2023-03-17T16:34:34;14.30;99.90
9824;DHT22;4951;50.778;7.196;2023-03-17T16:38:04;14.10;1.00
9824;DHT22;4951;50.778;7.196;2023-03-17T16:41:24;14.10;1.00
9824;DHT22;4951;50.778;7.196;2023-03-17T16:44:24;14.00;1.00
9824;DHT22;4951;50.778;7.196;2023-03-17T16:47:28;14.00;1.00
9824;DHT22;4951;50.778;7.196;2023-03-17T16:51:21;13.90;1.00
9824;DHT22;4951;50.778;7.196;2023-03-17T16:58:14;13.80;1.00
9824;DHT22;4951;50.778;7.196;2023-03-17T17:01:40;13.70;1.00
9824;DHT22;4951;50.778;7.196;2023-03-17T17:07:38;13.60;1.00
9824;DHT22;4951;50.778;7.196;2023-03-17T17:10:29;13.50;1.00
9824;DHT22;4951;50.778;7.196;2023-03-17T17:13:03;13.50;1.00
9824;DHT22;4951;50.778;7.196;2023-03-17T17:15:46;13.50;1.00
9824;DHT22;4951;50.778;7.196;2023-03-17T17:18:25;13.40;1.00
9824;DHT22;4951;50.778;7.196;2023-03-17T17:21:15;13.40;1.00
9824;DHT22;4951;50.778;7.196;2023-03-17T17:23:45;13.40;1.00
9824;DHT22;4951;50.778;7.196;2023-03-17T17:26:44;13.40;1.00
9824;DHT22;4951;50.778;7.196;2023-03-17T17:32:07;13.40;1.00
9824;DHT22;4951;50.778;7.196;2023-03-17T17:34:50;13.30;1.00
9824;DHT22;4951;50.778;7.196;2023-03-17T17:37:44;13.30;1.00
9824;DHT22;4951;50.778;7.196;2023-03-17T17:40:38;13.30;1.00
9824;DHT22;4951;50.778;7.196;2023-03-17T17:43:17;13.30;1.00
9824;DHT22;4951;50.778;7.196;2023-03-17T17:45:47;13.30;1.00
9824;DHT22;4951;50.778;7.196;2023-03-17T17:48:59;13.20;1.00
9824;DHT22;4951;50.778;7.196;2023-03-17T17:52:08;13.20;1.00
9824;DHT22;4951;50.778;7.196;2023-03-17T17:54:53;13.10;1.00
9824;DHT22;4951;50.778;7.196;2023-03-17T17:57:38;13.10;1.00
9824;DHT22;4951;50.778;7.196;2023-03-17T18:03:06;13.00;1.00
9824;DHT22;4951;50.778;7.196;2023-03-17T18:05:50;12.90;1.00
9824;DHT22;4951;50.778;7.196;2023-03-17T18:08:41;12.90;1.00
9824;DHT22;4951;50.778;7.196;2023-03-17T18:11:46;12.90;1.00
9824;DHT22;4951;50.778;7.196;2023-03-17T18:14:20;12.90;1.00
9824;DHT22;4951;50.778;7.196;2023-03-17T18:16:58;12.90;1.00
9824;DHT22;4951;50.778;7.196;2023-03-17T18:19:34;12.80;1.00
9824;DHT22;4951;50.778;7.196;2023-03-17T18:22:05;12.80;1.00
9824;DHT22;4951;50.778;7.196;2023-03-17T18:24:33;12.80;1.00
9824;DHT22;4951;50.778;7.196;2023-03-17T18:30:44;12.70;1.00
9824;DHT22;4951;50.778;7.196;2023-03-17T18:33:33;12.70;1.00
9824;DHT22;4951;50.778;7.196;2023-03-17T18:36:17;12.60;1.00
9824;DHT22;4951;50.778;7.196;2023-03-17T18:39:12;12.50;1.00
9824;DHT22;4951;50.778;7.196;2023-03-17T18:42:24;12.40;99.90
9824;DHT22;4951;50.778;7.196;2023-03-17T18:45:31;12.40;99.90
9824;DHT22;4951;50.778;7.196;2023-03-17T18:48:14;12.40;99.90
9824;DHT22;4951;50.778;7.196;2023-03-17T18:51:20;12.40;1.00
9824;DHT22;4951;50.778;7.196;2023-03-17T18:53:49;12.40;1.00
9824;DHT22;4951;50.778;7.196;2023-03-17T18:56:47;12.40;1.00
9824;DHT22;4951;50.778;7.196;2023-03-17T18:59:25;12.40;99.90
9824;DHT22;4951;50.778;7.196;2023-03-17T19:02:28;12.30;1.00
9824;DHT22;4951;50.778;7.196;2023-03-17T19:05:13;12.30;1.00
9824;DHT22;4951;50.778;7.196;2023-03-17T19:08:14;12.20;1.00
9824;DHT22;4951;50.778;7.196;2023-03-17T19:10:56;12.20;1.00
9824;DHT22;4951;50.778;7.196;2023-03-17T19:13:38;12.10;1.00
9824;DHT22;4951;50.778;7.196;2023-03-17T19:16:47;12.00;1.00
9824;DHT22;4951;50.778;7.196;2023-03-17T19:19:17;11.90;41.80
9824;DHT22;4951;50.778;7.196;2023-03-17T19:21:49;11.70;99.90
9824;DHT22;4951;50.778;7.196;2023-03-17T19:24:16;11.60;1.00
9824;DHT22;4951;50.778;7.196;2023-03-17T19:26:48;11.50;99.90
9824;DHT22;4951;50.778;7.196;2023-03-17T19:29:29;11.40;1.00
9824;DHT22;4951;50.778;7.196;2023-03-17T19:32:00;11.30;1.00
9824;DHT22;4951;50.778;7.196;2023-03-17T19:34:36;11.20;1.00
9824;DHT22;4951;50.778;7.196;2023-03-17T19:37:22;11.20;92.40
9824;DHT22;4951;50.778;7.196;2023-03-17T19:39:58;11.10;1.00
9824;DHT22;4951;50.778;7.196;2023-03-17T19:42:37;11.10;1.00
9824;DHT22;4951;50.778;7.196;2023-03-17T19:45:27;11.00;1.00
9824;DHT22;4951;50.778;7.196;2023-03-17T19:48:00;11.00;99.90
9824;DHT22;4951;50.778;7.196;2023-03-17T19:50:38;10.90;1.00
9824;DHT22;4951;50.778;7.196;2023-03-17T19:53:06;10.90;1.00
9824;DHT22;4951;50.778;7.196;2023-03-17T19:55:35;10.80;1.00
9824;DHT22;4951;50.778;7.196;2023-03-17T19:58:02;10.80;99.90
9824;DHT22;4951;50.778;7.196;2023-03-17T20:00:40;10.80;1.00
9824;DHT22;4951;50.778;7.196;2023-03-17T20:03:24;10.80;1.00
9824;DHT22;4951;50.778;7.196;2023-03-17T20:06:13;10.80;1.00
9824;DHT22;4951;50.778;7.196;2023-03-17T20:08:45;10.80;1.00
9824;DHT22;4951;50.778;7.196;2023-03-17T20:11:14;10.80;1.00
9824;DHT22;4951;50.778;7.196;2023-03-17T20:13:42;10.80;1.00
9824;DHT22;4951;50.778;7.196;2023-03-17T20:16:14;10.80;1.00
9824;DHT22;4951;50.778;7.196;2023-03-17T20:18:46;10.90;1.00
9824;DHT22;4951;50.778;7.196;2023-03-17T20:21:24;10.90;1.00
9824;DHT22;4951;50.778;7.196;2023-03-17T20:24:04;10.90;1.00
9824;DHT22;4951;50.778;7.196;2023-03-17T20:26:44;10.80;1.00
9824;DHT22;4951;50.778;7.196;2023-03-17T20:29:20;10.80;1.00
9824;DHT22;4951;50.778;7.196;2023-03-17T20:32:20;10.80;1.00
9824;DHT22;4951;50.778;7.196;2023-03-17T20:35:07;10.80;25.70
9824;DHT22;4951;50.778;7.196;2023-03-17T20:38:01;10.70;1.00
9824;DHT22;4951;50.778;7.196;2023-03-17T20:40:37;10.60;1.00
9824;DHT22;4951;50.778;7.196;2023-03-17T20:43:49;10.60;1.00
9824;DHT22;4951;50.778;7.196;2023-03-17T20:46:35;10.50;99.90
9824;DHT22;4951;50.778;7.196;2023-03-17T20:49:46;10.50;1.00
9824;DHT22;4951;50.778;7.196;2023-03-17T20:52:33;10.50;1.00
9824;DHT22;4951;50.778;7.196;2023-03-17T20:55:11;10.40;1.00
9824;DHT22;4951;50.778;7.196;2023-03-17T20:58:07;10.40;1.00
9824;DHT22;4951;50.778;7.196;2023-03-17T21:01:23;10.40;1.00
9824;DHT22;4951;50.778;7.196;2023-03-17T21:04:47;10.40;1.00
9824;DHT22;4951;50.778;7.196;2023-03-17T21:07:28;10.40;1.00
9824;DHT22;4951;50.778;7.196;2023-03-17T21:10:46;10.40;1.00
9824;DHT22;4951;50.778;7.196;2023-03-17T21:13:40;10.30;1.00
9824;DHT22;4951;50.778;7.196;2023-03-17T21:16:38;10.30;58.50
9824;DHT22;4951;50.778;7.196;2023-03-17T21:19:20;10.20;1.00
9824;DHT22;4951;50.778;7.196;2023-03-17T21:21:57;10.20;1.00
9824;DHT22;4951;50.778;7.196;2023-03-17T21:24:38;10.10;1.00
9824;DHT22;4951;50.778;7.196;2023-03-17T21:27:18;10.10;1.00
9824;DHT22;4951;50.778;7.196;2023-03-17T21:30:06;10.10;16.90
9824;DHT22;4951;50.778;7.196;2023-03-17T21:32:37;10.00;99.90
9824;DHT22;4951;50.778;7.196;2023-03-17T21:35:22;10.00;99.90
9824;DHT22;4951;50.778;7.196;2023-03-17T21:37:58;9.90;1.00
9824;DHT22;4951;50.778;7.196;2023-03-17T21:40:28;9.90;1.00
9824;DHT22;4951;50.778;7.196;2023-03-17T21:43:50;9.90;1.00
9824;DHT22;4951;50.778;7.196;2023-03-17T21:46:55;9.80;1.00
9824;DHT22;4951;50.778;7.196;2023-03-17T21:49:32;9.80;1.00
9824;DHT22;4951;50.778;7.196;2023-03-17T21:52:20;9.80;1.00
9824;DHT22;4951;50.778;7.196;2023-03-17T21:55:05;9.80;1.00
9824;DHT22;4951;50.778;7.196;2023-03-17T21:58:35;9.80;17.10
9824;DHT22;4951;50.778;7.196;2023-03-17T22:05:17;9.70;99.90
9824;DHT22;4951;50.778;7.196;2023-03-17T22:08:06;9.70;99.90
9824;DHT22;4951;50.778;7.196;2023-03-17T22:10:50;9.60;99.90
9824;DHT22;4951;50.778;7.196;2023-03-17T22:13:18;9.60;99.90